sensor_id;sensor_type;location;lat;lon;timestamp;P1;durP1;ratioP1;P2;durP2;ratioP2
69594;SDS011;56800;52.142;5.364;2024-03-25T00:02:09;22.90;;;3.47;;
69594;SDS011;56800;52.142;5.364;2024-03-25T00:04:38;27.93;;;3.13;;
69594;SDS011;56800;52.142;5.364;2024-03-25T00:07:38;16.38;;;2.20;;
69594;SDS011;56800;52.142;5.364;2024-03-25T00:10:04;24.83;;;2.30;;
69594;SDS011;56800;52.142;5.364;2024-03-25T00:12:36;19.70;;;2.80;;
69594;SDS011;56800;52.142;5.364;2024-03-25T00:15:02;30.77;;;3.17;;
69594;SDS011;56800;52.142;5.364;2024-03-25T00:17:28;24.75;;;2.70;;
69594;SDS011;56800;52.142;5.364;2024-03-25T00:19:54;23.92;;;2.95;;
69594;SDS011;56800;52.142;5.364;2024-03-25T00:22:21;13.85;;;2.53;;
69594;SDS011;56800;52.142;5.364;2024-03-25T00:24:48;29.13;;;2.67;;
69594;SDS011;56800;52.142;5.364;2024-03-25T00:27:14;32.85;;;3.10;;
69594;SDS011;56800;52.142;5.364;2024-03-25T00:29:40;28.70;;;3.15;;
69594;SDS011;56800;52.142;5.364;2024-03-25T00:32:07;26.03;;;3.00;;
69594;SDS011;56800;52.142;5.364;2024-03-25T00:34:33;18.40;;;2.78;;
69594;SDS011;56800;52.142;5.364;2024-03-25T00:36:59;21.88;;;3.17;;
69594;SDS011;56800;52.142;5.364;2024-03-25T00:39:25;24.88;;;3.60;;
69594;SDS011;56800;52.142;5.364;2024-03-25T00:41:52;28.70;;;3.22;;
69594;SDS011;56800;52.142;5.364;2024-03-25T00:44:19;24.37;;;2.67;;
69594;SDS011;56800;52.142;5.364;2024-03-25T00:46:45;21.20;;;3.08;;
69594;SDS011;56800;52.142;5.364;2024-03-25T00:49:11;21.75;;;2.50;;
69594;SDS011;56800;52.142;5.364;2024-03-25T00:51:38;16.05;;;2.83;;
69594;SDS011;56800;52.142;5.364;2024-03-25T00:54:03;20.17;;;2.60;;
69594;SDS011;56800;52.142;5.364;2024-03-25T00:56:30;29.87;;;3.33;;
69594;SDS011;56800;52.142;5.364;2024-03-25T00:58:56;27.42;;;3.30;;
69594;SDS011;56800;52.142;5.364;2024-03-25T01:01:27;26.08;;;2.78;;
69594;SDS011;56800;52.142;5.364;2024-03-25T01:03:57;21.27;;;2.57;;
69594;SDS011;56800;52.142;5.364;2024-03-25T01:06:23;16.27;;;2.15;;
69594;SDS011;56800;52.142;5.364;2024-03-25T01:08:49;24.60;;;2.92;;
69594;SDS011;56800;52.142;5.364;2024-03-25T01:11:15;26.38;;;2.88;;
69594;SDS011;56800;52.142;5.364;2024-03-25T01:13:41;19.00;;;2.67;;
69594;SDS011;56800;52.142;5.364;2024-03-25T01:16:07;17.65;;;2.50;;
69594;SDS011;56800;52.142;5.364;2024-03-25T01:18:33;24.63;;;3.00;;
69594;SDS011;56800;52.142;5.364;2024-03-25T01:20:59;25.37;;;3.07;;
69594;SDS011;56800;52.142;5.364;2024-03-25T01:23:25;20.05;;;2.60;;
69594;SDS011;56800;52.142;5.364;2024-03-25T01:25:51;22.30;;;2.50;;
69594;SDS011;56800;52.142;5.364;2024-03-25T01:28:17;19.42;;;3.03;;
69594;SDS011;56800;52.142;5.364;2024-03-25T01:30:43;12.85;;;2.25;;
69594;SDS011;56800;52.142;5.364;2024-03-25T01:33:09;20.30;;;2.90;;
69594;SDS011;56800;52.142;5.364;2024-03-25T01:35:34;19.70;;;2.45;;
69594;SDS011;56800;52.142;5.364;2024-03-25T01:38:00;22.48;;;3.05;;
69594;SDS011;56800;52.142;5.364;2024-03-25T01:40:26;22.33;;;3.03;;
69594;SDS011;56800;52.142;5.364;2024-03-25T01:42:58;18.85;;;3.28;;
69594;SDS011;56800;52.142;5.364;2024-03-25T01:45:26;18.13;;;2.80;;
69594;SDS011;56800;52.142;5.364;2024-03-25T01:47:59;16.92;;;2.25;;
69594;SDS011;56800;52.142;5.364;2024-03-25T01:50:28;20.98;;;2.60;;
69594;SDS011;56800;52.142;5.364;2024-03-25T01:52:55;21.52;;;2.83;;
69594;SDS011;56800;52.142;5.364;2024-03-25T01:55:23;19.85;;;2.67;;
69594;SDS011;56800;52.142;5.364;2024-03-25T01:57:51;25.63;;;3.00;;
69594;SDS011;56800;52.142;5.364;2024-03-25T02:00:17;20.85;;;3.15;;
69594;SDS011;56800;52.142;5.364;2024-03-25T02:02:44;22.38;;;3.33;;
69594;SDS011;56800;52.142;5.364;2024-03-25T02:05:11;21.33;;;2.97;;
69594;SDS011;56800;52.142;5.364;2024-03-25T02:07:37;23.90;;;2.58;;
69594;SDS011;56800;52.142;5.364;2024-03-25T02:10:04;18.70;;;2.90;;
69594;SDS011;56800;52.142;5.364;2024-03-25T02:12:30;18.95;;;3.05;;
69594;SDS011;56800;52.142;5.364;2024-03-25T02:14:57;23.92;;;3.15;;
69594;SDS011;56800;52.142;5.364;2024-03-25T02:17:23;19.40;;;2.95;;
69594;SDS011;56800;52.142;5.364;2024-03-25T02:19:49;25.10;;;3.92;;
69594;SDS011;56800;52.142;5.364;2024-03-25T02:22:16;18.47;;;2.50;;
69594;SDS011;56800;52.142;5.364;2024-03-25T02:24:42;22.95;;;3.08;;
69594;SDS011;56800;52.142;5.364;2024-03-25T02:27:10;18.08;;;3.05;;
69594;SDS011;56800;52.142;5.364;2024-03-25T02:29:40;23.25;;;2.90;;
69594;SDS011;56800;52.142;5.364;2024-03-25T02:32:07;21.50;;;3.05;;
69594;SDS011;56800;52.142;5.364;2024-03-25T02:34:36;17.57;;;2.77;;
69594;SDS011;56800;52.142;5.364;2024-03-25T02:37:03;19.75;;;2.78;;
69594;SDS011;56800;52.142;5.364;2024-03-25T02:39:29;24.67;;;2.92;;
69594;SDS011;56800;52.142;5.364;2024-03-25T02:41:55;23.60;;;3.10;;
69594;SDS011;56800;52.142;5.364;2024-03-25T02:44:22;18.97;;;3.10;;
69594;SDS011;56800;52.142;5.364;2024-03-25T02:46:48;17.08;;;2.70;;
69594;SDS011;56800;52.142;5.364;2024-03-25T02:49:15;19.80;;;3.15;;
69594;SDS011;56800;52.142;5.364;2024-03-25T02:51:40;22.42;;;2.95;;
69594;SDS011;56800;52.142;5.364;2024-03-25T02:54:06;21.40;;;2.97;;
69594;SDS011;56800;52.142;5.364;2024-03-25T02:56:33;17.95;;;2.85;;
69594;SDS011;56800;52.142;5.364;2024-03-25T02:59:00;17.38;;;2.60;;
69594;SDS011;56800;52.142;5.364;2024-03-25T03:01:26;17.70;;;2.70;;
69594;SDS011;56800;52.142;5.364;2024-03-25T03:03:51;20.55;;;2.90;;
69594;SDS011;56800;52.142;5.364;2024-03-25T03:06:17;28.40;;;3.37;;
69594;SDS011;56800;52.142;5.364;2024-03-25T03:08:44;19.15;;;2.72;;
69594;SDS011;56800;52.142;5.364;2024-03-25T03:11:10;18.67;;;2.72;;
69594;SDS011;56800;52.142;5.364;2024-03-25T03:13:36;21.17;;;2.70;;
69594;SDS011;56800;52.142;5.364;2024-03-25T03:16:01;23.07;;;3.17;;
69594;SDS011;56800;52.142;5.364;2024-03-25T03:18:27;24.25;;;2.90;;
69594;SDS011;56800;52.142;5.364;2024-03-25T03:20:53;24.50;;;2.90;;
69594;SDS011;56800;52.142;5.364;2024-03-25T03:23:22;23.48;;;3.42;;
69594;SDS011;56800;52.142;5.364;2024-03-25T03:25:48;19.80;;;3.25;;
69594;SDS011;56800;52.142;5.364;2024-03-25T03:28:14;21.88;;;2.75;;
69594;SDS011;56800;52.142;5.364;2024-03-25T03:30:40;15.33;;;3.23;;
69594;SDS011;56800;52.142;5.364;2024-03-25T03:33:06;18.90;;;3.75;;
69594;SDS011;56800;52.142;5.364;2024-03-25T03:35:32;18.73;;;3.28;;
69594;SDS011;56800;52.142;5.364;2024-03-25T03:37:58;24.92;;;3.63;;
69594;SDS011;56800;52.142;5.364;2024-03-25T03:40:24;21.47;;;3.00;;
69594;SDS011;56800;52.142;5.364;2024-03-25T03:42:50;14.88;;;3.10;;
69594;SDS011;56800;52.142;5.364;2024-03-25T03:45:16;16.77;;;3.30;;
69594;SDS011;56800;52.142;5.364;2024-03-25T03:47:41;20.35;;;3.42;;
69594;SDS011;56800;52.142;5.364;2024-03-25T03:50:07;25.30;;;3.33;;
69594;SDS011;56800;52.142;5.364;2024-03-25T03:52:33;14.50;;;3.15;;
69594;SDS011;56800;52.142;5.364;2024-03-25T03:54:59;21.13;;;3.53;;
69594;SDS011;56800;52.142;5.364;2024-03-25T03:57:25;19.98;;;3.10;;
69594;SDS011;56800;52.142;5.364;2024-03-25T03:59:51;20.52;;;3.53;;
69594;SDS011;56800;52.142;5.364;2024-03-25T04:02:17;22.77;;;3.22;;
69594;SDS011;56800;52.142;5.364;2024-03-25T04:04:43;17.40;;;3.23;;
69594;SDS011;56800;52.142;5.364;2024-03-25T04:07:09;26.35;;;3.40;;
69594;SDS011;56800;52.142;5.364;2024-03-25T04:09:35;20.10;;;3.47;;
69594;SDS011;56800;52.142;5.364;2024-03-25T04:12:01;20.33;;;2.93;;
69594;SDS011;56800;52.142;5.364;2024-03-25T04:14:27;18.98;;;3.15;;
69594;SDS011;56800;52.142;5.364;2024-03-25T04:16:53;21.63;;;3.43;;
69594;SDS011;56800;52.142;5.364;2024-03-25T04:19:19;24.23;;;3.38;;
69594;SDS011;56800;52.142;5.364;2024-03-25T04:21:48;27.05;;;3.35;;
69594;SDS011;56800;52.142;5.364;2024-03-25T04:24:14;16.03;;;3.23;;
69594;SDS011;56800;52.142;5.364;2024-03-25T04:26:40;24.63;;;3.42;;
69594;SDS011;56800;52.142;5.364;2024-03-25T04:29:05;25.20;;;3.38;;
69594;SDS011;56800;52.142;5.364;2024-03-25T04:31:31;19.70;;;2.63;;
69594;SDS011;56800;52.142;5.364;2024-03-25T04:33:57;24.80;;;3.25;;
69594;SDS011;56800;52.142;5.364;2024-03-25T04:36:23;21.87;;;3.10;;
69594;SDS011;56800;52.142;5.364;2024-03-25T04:38:48;24.85;;;2.60;;
69594;SDS011;56800;52.142;5.364;2024-03-25T04:41:15;24.87;;;3.67;;
69594;SDS011;56800;52.142;5.364;2024-03-25T04:43:40;19.55;;;3.13;;
69594;SDS011;56800;52.142;5.364;2024-03-25T04:46:06;17.97;;;3.00;;
69594;SDS011;56800;52.142;5.364;2024-03-25T04:48:32;18.35;;;2.97;;
69594;SDS011;56800;52.142;5.364;2024-03-25T04:50:57;24.37;;;2.70;;
69594;SDS011;56800;52.142;5.364;2024-03-25T04:53:23;17.35;;;2.35;;
69594;SDS011;56800;52.142;5.364;2024-03-25T04:55:49;20.80;;;2.77;;
69594;SDS011;56800;52.142;5.364;2024-03-25T04:58:15;20.05;;;3.17;;
69594;SDS011;56800;52.142;5.364;2024-03-25T05:00:40;20.67;;;2.90;;
69594;SDS011;56800;52.142;5.364;2024-03-25T05:03:06;26.13;;;3.20;;
69594;SDS011;56800;52.142;5.364;2024-03-25T05:05:32;18.88;;;3.05;;
69594;SDS011;56800;52.142;5.364;2024-03-25T05:07:58;16.95;;;2.78;;
69594;SDS011;56800;52.142;5.364;2024-03-25T05:10:23;19.33;;;2.37;;
69594;SDS011;56800;52.142;5.364;2024-03-25T05:12:49;25.75;;;3.33;;
69594;SDS011;56800;52.142;5.364;2024-03-25T05:15:15;25.77;;;3.50;;
69594;SDS011;56800;52.142;5.364;2024-03-25T05:17:41;20.70;;;3.63;;
69594;SDS011;56800;52.142;5.364;2024-03-25T05:20:07;23.25;;;3.78;;
69594;SDS011;56800;52.142;5.364;2024-03-25T05:22:34;18.55;;;3.30;;
69594;SDS011;56800;52.142;5.364;2024-03-25T05:25:00;17.27;;;3.60;;
69594;SDS011;56800;52.142;5.364;2024-03-25T05:27:26;18.70;;;3.95;;
69594;SDS011;56800;52.142;5.364;2024-03-25T05:29:52;18.75;;;3.65;;
69594;SDS011;56800;52.142;5.364;2024-03-25T05:32:17;22.13;;;3.90;;
69594;SDS011;56800;52.142;5.364;2024-03-25T05:34:46;23.05;;;3.97;;
69594;SDS011;56800;52.142;5.364;2024-03-25T05:37:13;21.00;;;4.40;;
69594;SDS011;56800;52.142;5.364;2024-03-25T05:39:39;24.43;;;4.53;;
69594;SDS011;56800;52.142;5.364;2024-03-25T05:42:05;23.33;;;4.32;;
69594;SDS011;56800;52.142;5.364;2024-03-25T05:44:31;16.65;;;3.80;;
69594;SDS011;56800;52.142;5.364;2024-03-25T05:46:57;22.13;;;4.47;;
69594;SDS011;56800;52.142;5.364;2024-03-25T05:49:22;27.55;;;4.60;;
69594;SDS011;56800;52.142;5.364;2024-03-25T05:51:48;21.67;;;4.83;;
69594;SDS011;56800;52.142;5.364;2024-03-25T05:54:14;18.38;;;4.78;;
69594;SDS011;56800;52.142;5.364;2024-03-25T05:56:40;23.70;;;4.00;;
69594;SDS011;56800;52.142;5.364;2024-03-25T05:59:06;26.55;;;4.68;;
69594;SDS011;56800;52.142;5.364;2024-03-25T06:01:31;20.43;;;4.23;;
69594;SDS011;56800;52.142;5.364;2024-03-25T06:03:59;19.15;;;4.00;;
69594;SDS011;56800;52.142;5.364;2024-03-25T06:06:24;23.23;;;4.60;;
69594;SDS011;56800;52.142;5.364;2024-03-25T06:08:50;24.60;;;4.63;;
69594;SDS011;56800;52.142;5.364;2024-03-25T06:11:16;16.60;;;4.78;;
69594;SDS011;56800;52.142;5.364;2024-03-25T06:13:45;25.87;;;4.53;;
69594;SDS011;56800;52.142;5.364;2024-03-25T06:16:12;20.85;;;4.53;;
69594;SDS011;56800;52.142;5.364;2024-03-25T06:18:38;14.13;;;4.03;;
69594;SDS011;56800;52.142;5.364;2024-03-25T06:21:05;19.60;;;4.72;;
69594;SDS011;56800;52.142;5.364;2024-03-25T06:23:31;21.48;;;4.25;;
69594;SDS011;56800;52.142;5.364;2024-03-25T06:25:57;14.30;;;3.87;;
69594;SDS011;56800;52.142;5.364;2024-03-25T06:28:23;20.42;;;4.43;;
69594;SDS011;56800;52.142;5.364;2024-03-25T06:30:49;27.70;;;4.55;;
69594;SDS011;56800;52.142;5.364;2024-03-25T06:33:35;24.83;;;3.88;;
69594;SDS011;56800;52.142;5.364;2024-03-25T06:36:20;16.60;;;3.70;;
69594;SDS011;56800;52.142;5.364;2024-03-25T06:38:46;16.98;;;4.15;;
69594;SDS011;56800;52.142;5.364;2024-03-25T06:41:12;19.42;;;3.97;;
69594;SDS011;56800;52.142;5.364;2024-03-25T06:43:38;19.02;;;3.72;;
69594;SDS011;56800;52.142;5.364;2024-03-25T06:46:05;18.70;;;4.03;;
69594;SDS011;56800;52.142;5.364;2024-03-25T06:48:31;21.00;;;4.32;;
69594;SDS011;56800;52.142;5.364;2024-03-25T06:50:58;21.60;;;3.92;;
69594;SDS011;56800;52.142;5.364;2024-03-25T06:53:24;21.15;;;5.03;;
69594;SDS011;56800;52.142;5.364;2024-03-25T06:58:20;24.67;;;4.43;;
69594;SDS011;56800;52.142;5.364;2024-03-25T07:00:47;20.90;;;3.97;;
69594;SDS011;56800;52.142;5.364;2024-03-25T07:03:17;20.95;;;3.63;;
69594;SDS011;56800;52.142;5.364;2024-03-25T07:05:46;24.40;;;4.15;;
69594;SDS011;56800;52.142;5.364;2024-03-25T07:08:13;15.52;;;3.55;;
69594;SDS011;56800;52.142;5.364;2024-03-25T07:10:42;26.60;;;3.50;;
69594;SDS011;56800;52.142;5.364;2024-03-25T07:13:09;23.42;;;4.35;;
69594;SDS011;56800;52.142;5.364;2024-03-25T07:15:34;20.55;;;3.47;;
69594;SDS011;56800;52.142;5.364;2024-03-25T07:18:00;21.77;;;3.47;;
69594;SDS011;56800;52.142;5.364;2024-03-25T07:20:26;23.17;;;4.53;;
69594;SDS011;56800;52.142;5.364;2024-03-25T07:22:52;17.00;;;3.40;;
69594;SDS011;56800;52.142;5.364;2024-03-25T07:25:21;22.58;;;3.88;;
69594;SDS011;56800;52.142;5.364;2024-03-25T07:27:47;24.05;;;3.47;;
69594;SDS011;56800;52.142;5.364;2024-03-25T07:30:13;21.98;;;3.97;;
69594;SDS011;56800;52.142;5.364;2024-03-25T07:32:39;19.67;;;3.60;;
69594;SDS011;56800;52.142;5.364;2024-03-25T07:35:05;23.00;;;3.30;;
69594;SDS011;56800;52.142;5.364;2024-03-25T07:37:33;24.55;;;3.72;;
69594;SDS011;56800;52.142;5.364;2024-03-25T07:39:59;17.48;;;3.60;;
69594;SDS011;56800;52.142;5.364;2024-03-25T07:42:25;14.82;;;2.80;;
69594;SDS011;56800;52.142;5.364;2024-03-25T07:44:51;22.30;;;4.00;;
69594;SDS011;56800;52.142;5.364;2024-03-25T07:47:16;19.98;;;3.90;;
69594;SDS011;56800;52.142;5.364;2024-03-25T07:49:42;18.33;;;3.30;;
69594;SDS011;56800;52.142;5.364;2024-03-25T07:52:08;14.80;;;3.17;;
69594;SDS011;56800;52.142;5.364;2024-03-25T07:54:33;20.03;;;3.60;;
69594;SDS011;56800;52.142;5.364;2024-03-25T07:57:01;20.45;;;3.65;;
69594;SDS011;56800;52.142;5.364;2024-03-25T07:59:28;20.88;;;3.95;;
69594;SDS011;56800;52.142;5.364;2024-03-25T08:01:54;18.87;;;3.40;;
69594;SDS011;56800;52.142;5.364;2024-03-25T08:04:20;17.98;;;3.60;;
69594;SDS011;56800;52.142;5.364;2024-03-25T08:06:45;19.60;;;3.23;;
69594;SDS011;56800;52.142;5.364;2024-03-25T08:09:11;20.52;;;2.90;;
69594;SDS011;56800;52.142;5.364;2024-03-25T08:11:39;17.75;;;3.58;;
69594;SDS011;56800;52.142;5.364;2024-03-25T08:14:05;22.77;;;3.33;;
69594;SDS011;56800;52.142;5.364;2024-03-25T08:16:30;18.15;;;2.90;;
69594;SDS011;56800;52.142;5.364;2024-03-25T08:18:56;18.00;;;3.30;;
69594;SDS011;56800;52.142;5.364;2024-03-25T08:21:22;15.95;;;3.13;;
69594;SDS011;56800;52.142;5.364;2024-03-25T08:23:48;20.65;;;3.42;;
69594;SDS011;56800;52.142;5.364;2024-03-25T08:26:14;26.87;;;3.43;;
69594;SDS011;56800;52.142;5.364;2024-03-25T08:28:39;17.83;;;2.90;;
69594;SDS011;56800;52.142;5.364;2024-03-25T08:31:05;21.50;;;3.23;;
69594;SDS011;56800;52.142;5.364;2024-03-25T08:33:31;23.60;;;3.70;;
69594;SDS011;56800;52.142;5.364;2024-03-25T08:35:57;19.50;;;3.77;;
69594;SDS011;56800;52.142;5.364;2024-03-25T08:38:23;20.20;;;3.78;;
69594;SDS011;56800;52.142;5.364;2024-03-25T08:40:48;22.92;;;4.20;;
69594;SDS011;56800;52.142;5.364;2024-03-25T08:43:16;16.83;;;2.80;;
69594;SDS011;56800;52.142;5.364;2024-03-25T08:45:43;12.57;;;3.03;;
69594;SDS011;56800;52.142;5.364;2024-03-25T08:48:12;20.35;;;3.00;;
69594;SDS011;56800;52.142;5.364;2024-03-25T08:50:37;15.93;;;2.85;;
69594;SDS011;56800;52.142;5.364;2024-03-25T08:53:03;19.50;;;2.97;;
69594;SDS011;56800;52.142;5.364;2024-03-25T08:55:30;14.90;;;3.08;;
69594;SDS011;56800;52.142;5.364;2024-03-25T08:57:56;18.20;;;3.00;;
69594;SDS011;56800;52.142;5.364;2024-03-25T09:00:25;15.25;;;2.97;;
69594;SDS011;56800;52.142;5.364;2024-03-25T09:02:54;20.73;;;2.83;;
69594;SDS011;56800;52.142;5.364;2024-03-25T09:05:20;20.10;;;4.45;;
69594;SDS011;56800;52.142;5.364;2024-03-25T09:07:49;19.25;;;3.10;;
69594;SDS011;56800;52.142;5.364;2024-03-25T09:10:17;10.55;;;2.88;;
69594;SDS011;56800;52.142;5.364;2024-03-25T09:13:02;17.53;;;2.83;;
69594;SDS011;56800;52.142;5.364;2024-03-25T09:15:28;12.75;;;2.70;;
69594;SDS011;56800;52.142;5.364;2024-03-25T09:17:55;17.20;;;3.47;;
69594;SDS011;56800;52.142;5.364;2024-03-25T09:20:21;16.70;;;3.17;;
69594;SDS011;56800;52.142;5.364;2024-03-25T09:22:47;19.63;;;3.35;;
69594;SDS011;56800;52.142;5.364;2024-03-25T09:25:14;20.80;;;3.05;;
69594;SDS011;56800;52.142;5.364;2024-03-25T09:27:40;14.98;;;3.67;;
69594;SDS011;56800;52.142;5.364;2024-03-25T09:30:11;15.63;;;2.90;;
69594;SDS011;56800;52.142;5.364;2024-03-25T09:32:37;17.73;;;3.53;;
69594;SDS011;56800;52.142;5.364;2024-03-25T09:35:03;12.73;;;3.00;;
69594;SDS011;56800;52.142;5.364;2024-03-25T09:37:30;13.18;;;3.03;;
69594;SDS011;56800;52.142;5.364;2024-03-25T09:39:57;17.52;;;3.40;;
69594;SDS011;56800;52.142;5.364;2024-03-25T09:42:27;13.10;;;3.07;;
69594;SDS011;56800;52.142;5.364;2024-03-25T09:44:58;18.88;;;2.90;;
69594;SDS011;56800;52.142;5.364;2024-03-25T09:47:24;14.48;;;3.20;;
69594;SDS011;56800;52.142;5.364;2024-03-25T09:49:51;17.73;;;3.50;;
69594;SDS011;56800;52.142;5.364;2024-03-25T09:52:19;13.38;;;3.60;;
69594;SDS011;56800;52.142;5.364;2024-03-25T09:54:45;21.77;;;3.23;;
69594;SDS011;56800;52.142;5.364;2024-03-25T09:57:11;18.00;;;3.08;;
69594;SDS011;56800;52.142;5.364;2024-03-25T09:59:37;19.35;;;2.78;;
69594;SDS011;56800;52.142;5.364;2024-03-25T10:02:04;14.25;;;3.03;;
69594;SDS011;56800;52.142;5.364;2024-03-25T10:04:33;12.90;;;3.10;;
69594;SDS011;56800;52.142;5.364;2024-03-25T10:06:59;13.90;;;2.70;;
69594;SDS011;56800;52.142;5.364;2024-03-25T10:09:24;16.33;;;3.20;;
69594;SDS011;56800;52.142;5.364;2024-03-25T10:11:53;18.15;;;3.05;;
69594;SDS011;56800;52.142;5.364;2024-03-25T10:14:19;15.60;;;2.92;;
69594;SDS011;56800;52.142;5.364;2024-03-25T10:16:45;13.57;;;2.85;;
69594;SDS011;56800;52.142;5.364;2024-03-25T10:19:11;14.20;;;3.20;;
69594;SDS011;56800;52.142;5.364;2024-03-25T10:21:37;16.73;;;2.42;;
69594;SDS011;56800;52.142;5.364;2024-03-25T10:24:05;14.10;;;2.83;;
69594;SDS011;56800;52.142;5.364;2024-03-25T10:26:32;19.27;;;3.83;;
69594;SDS011;56800;52.142;5.364;2024-03-25T10:29:04;13.70;;;3.40;;
69594;SDS011;56800;52.142;5.364;2024-03-25T10:31:35;18.70;;;3.30;;
69594;SDS011;56800;52.142;5.364;2024-03-25T10:34:01;12.93;;;3.50;;
69594;SDS011;56800;52.142;5.364;2024-03-25T10:36:27;15.45;;;3.55;;
69594;SDS011;56800;52.142;5.364;2024-03-25T10:38:55;19.23;;;3.40;;
69594;SDS011;56800;52.142;5.364;2024-03-25T10:41:23;13.13;;;3.10;;
69594;SDS011;56800;52.142;5.364;2024-03-25T10:43:51;9.80;;;3.20;;
69594;SDS011;56800;52.142;5.364;2024-03-25T10:46:19;16.83;;;3.83;;
69594;SDS011;56800;52.142;5.364;2024-03-25T10:49:33;14.82;;;4.07;;
69594;SDS011;56800;52.142;5.364;2024-03-25T10:51:39;16.35;;;4.15;;
69594;SDS011;56800;52.142;5.364;2024-03-25T10:54:07;11.50;;;3.17;;
69594;SDS011;56800;52.142;5.364;2024-03-25T10:56:33;13.07;;;3.53;;
69594;SDS011;56800;52.142;5.364;2024-03-25T10:58:59;14.77;;;3.47;;
69594;SDS011;56800;52.142;5.364;2024-03-25T11:01:26;17.13;;;3.28;;
69594;SDS011;56800;52.142;5.364;2024-03-25T11:03:54;14.68;;;3.25;;
69594;SDS011;56800;52.142;5.364;2024-03-25T11:06:20;17.77;;;3.58;;
69594;SDS011;56800;52.142;5.364;2024-03-25T11:08:55;15.10;;;3.37;;
69594;SDS011;56800;52.142;5.364;2024-03-25T11:11:22;15.73;;;3.72;;
69594;SDS011;56800;52.142;5.364;2024-03-25T11:13:48;16.52;;;3.40;;
69594;SDS011;56800;52.142;5.364;2024-03-25T11:16:25;12.37;;;2.90;;
69594;SDS011;56800;52.142;5.364;2024-03-25T11:18:54;9.10;;;2.90;;
69594;SDS011;56800;52.142;5.364;2024-03-25T11:21:26;18.47;;;3.73;;
69594;SDS011;56800;52.142;5.364;2024-03-25T11:23:52;11.98;;;3.15;;
69594;SDS011;56800;52.142;5.364;2024-03-25T11:26:26;13.98;;;3.45;;
69594;SDS011;56800;52.142;5.364;2024-03-25T11:28:54;13.50;;;3.27;;
69594;SDS011;56800;52.142;5.364;2024-03-25T11:31:20;14.00;;;3.85;;
69594;SDS011;56800;52.142;5.364;2024-03-25T11:33:49;13.68;;;3.70;;
69594;SDS011;56800;52.142;5.364;2024-03-25T11:36:15;10.80;;;3.60;;
69594;SDS011;56800;52.142;5.364;2024-03-25T11:38:43;13.57;;;3.90;;
69594;SDS011;56800;52.142;5.364;2024-03-25T11:41:12;14.18;;;3.47;;
69594;SDS011;56800;52.142;5.364;2024-03-25T11:43:39;16.10;;;4.15;;
69594;SDS011;56800;52.142;5.364;2024-03-25T11:46:07;16.88;;;3.72;;
69594;SDS011;56800;52.142;5.364;2024-03-25T11:48:33;11.67;;;3.93;;
69594;SDS011;56800;52.142;5.364;2024-03-25T11:50:59;14.05;;;3.70;;
69594;SDS011;56800;52.142;5.364;2024-03-25T11:53:26;12.20;;;4.55;;
69594;SDS011;56800;52.142;5.364;2024-03-25T11:55:52;12.02;;;3.67;;
69594;SDS011;56800;52.142;5.364;2024-03-25T11:58:18;11.87;;;4.17;;
69594;SDS011;56800;52.142;5.364;2024-03-25T12:00:44;10.82;;;3.90;;
69594;SDS011;56800;52.142;5.364;2024-03-25T12:03:14;11.75;;;4.32;;
69594;SDS011;56800;52.142;5.364;2024-03-25T12:05:44;15.57;;;4.67;;
69594;SDS011;56800;52.142;5.364;2024-03-25T12:08:10;11.73;;;3.80;;
69594;SDS011;56800;52.142;5.364;2024-03-25T12:10:37;10.90;;;3.88;;
69594;SDS011;56800;52.142;5.364;2024-03-25T12:13:23;10.05;;;3.63;;
69594;SDS011;56800;52.142;5.364;2024-03-25T12:15:52;11.43;;;3.30;;
69594;SDS011;56800;52.142;5.364;2024-03-25T12:18:18;14.45;;;3.75;;
69594;SDS011;56800;52.142;5.364;2024-03-25T12:20:45;8.35;;;2.97;;
69594;SDS011;56800;52.142;5.364;2024-03-25T12:23:11;11.97;;;3.40;;
69594;SDS011;56800;52.142;5.364;2024-03-25T12:25:37;11.27;;;3.30;;
69594;SDS011;56800;52.142;5.364;2024-03-25T12:28:10;12.82;;;4.05;;
69594;SDS011;56800;52.142;5.364;2024-03-25T12:30:49;13.07;;;3.83;;
69594;SDS011;56800;52.142;5.364;2024-03-25T12:33:16;8.85;;;3.33;;
69594;SDS011;56800;52.142;5.364;2024-03-25T12:35:45;10.18;;;3.63;;
69594;SDS011;56800;52.142;5.364;2024-03-25T12:38:21;9.95;;;3.42;;
69594;SDS011;56800;52.142;5.364;2024-03-25T12:40:48;11.55;;;3.05;;
69594;SDS011;56800;52.142;5.364;2024-03-25T12:43:14;7.43;;;3.07;;
69594;SDS011;56800;52.142;5.364;2024-03-25T12:45:41;6.82;;;3.28;;
69594;SDS011;56800;52.142;5.364;2024-03-25T12:48:08;9.15;;;3.40;;
69594;SDS011;56800;52.142;5.364;2024-03-25T12:50:34;11.60;;;3.42;;
69594;SDS011;56800;52.142;5.364;2024-03-25T12:53:00;10.98;;;3.53;;
69594;SDS011;56800;52.142;5.364;2024-03-25T12:55:28;7.80;;;2.83;;
69594;SDS011;56800;52.142;5.364;2024-03-25T12:57:57;9.77;;;3.25;;
69594;SDS011;56800;52.142;5.364;2024-03-25T13:00:22;10.50;;;3.47;;
69594;SDS011;56800;52.142;5.364;2024-03-25T13:02:48;9.13;;;3.13;;
69594;SDS011;56800;52.142;5.364;2024-03-25T13:05:15;5.50;;;2.55;;
69594;SDS011;56800;52.142;5.364;2024-03-25T13:07:41;9.50;;;3.15;;
69594;SDS011;56800;52.142;5.364;2024-03-25T13:10:06;5.88;;;2.72;;
69594;SDS011;56800;52.142;5.364;2024-03-25T13:12:32;8.75;;;2.95;;
69594;SDS011;56800;52.142;5.364;2024-03-25T13:14:58;7.87;;;2.50;;
69594;SDS011;56800;52.142;5.364;2024-03-25T13:17:24;6.80;;;2.40;;
69594;SDS011;56800;52.142;5.364;2024-03-25T13:19:50;9.23;;;2.73;;
69594;SDS011;56800;52.142;5.364;2024-03-25T13:22:16;7.75;;;2.30;;
69594;SDS011;56800;52.142;5.364;2024-03-25T13:24:42;6.55;;;2.47;;
69594;SDS011;56800;52.142;5.364;2024-03-25T13:27:07;9.20;;;3.20;;
69594;SDS011;56800;52.142;5.364;2024-03-25T13:29:33;8.20;;;2.67;;
69594;SDS011;56800;52.142;5.364;2024-03-25T13:32:02;7.00;;;2.45;;
69594;SDS011;56800;52.142;5.364;2024-03-25T13:34:28;8.13;;;2.78;;
69594;SDS011;56800;52.142;5.364;2024-03-25T13:36:54;7.30;;;2.60;;
69594;SDS011;56800;52.142;5.364;2024-03-25T13:39:20;7.97;;;2.67;;
69594;SDS011;56800;52.142;5.364;2024-03-25T13:41:46;7.60;;;2.30;;
69594;SDS011;56800;52.142;5.364;2024-03-25T13:44:12;6.45;;;2.72;;
69594;SDS011;56800;52.142;5.364;2024-03-25T13:46:38;6.45;;;2.60;;
69594;SDS011;56800;52.142;5.364;2024-03-25T13:49:04;6.30;;;2.35;;
69594;SDS011;56800;52.142;5.364;2024-03-25T13:51:29;10.10;;;2.40;;
69594;SDS011;56800;52.142;5.364;2024-03-25T13:53:55;9.48;;;2.65;;
69594;SDS011;56800;52.142;5.364;2024-03-25T13:56:21;8.73;;;2.97;;
69594;SDS011;56800;52.142;5.364;2024-03-25T13:58:47;7.50;;;3.00;;
69594;SDS011;56800;52.142;5.364;2024-03-25T14:01:12;8.80;;;3.00;;
69594;SDS011;56800;52.142;5.364;2024-03-25T14:03:38;6.30;;;2.53;;
69594;SDS011;56800;52.142;5.364;2024-03-25T14:06:04;8.77;;;3.03;;
69594;SDS011;56800;52.142;5.364;2024-03-25T14:08:29;10.82;;;3.10;;
69594;SDS011;56800;52.142;5.364;2024-03-25T14:10:59;8.83;;;2.73;;
69594;SDS011;56800;52.142;5.364;2024-03-25T14:13:25;7.45;;;3.03;;
69594;SDS011;56800;52.142;5.364;2024-03-25T14:15:51;10.93;;;3.30;;
69594;SDS011;56800;52.142;5.364;2024-03-25T14:18:17;8.68;;;3.08;;
69594;SDS011;56800;52.142;5.364;2024-03-25T14:20:43;9.60;;;2.93;;
69594;SDS011;56800;52.142;5.364;2024-03-25T14:23:09;8.20;;;3.13;;
69594;SDS011;56800;52.142;5.364;2024-03-25T14:25:35;7.80;;;2.58;;
69594;SDS011;56800;52.142;5.364;2024-03-25T14:28:01;11.50;;;3.40;;
69594;SDS011;56800;52.142;5.364;2024-03-25T14:30:26;7.32;;;2.97;;
69594;SDS011;56800;52.142;5.364;2024-03-25T14:32:52;8.53;;;3.00;;
69594;SDS011;56800;52.142;5.364;2024-03-25T14:35:20;5.60;;;3.05;;
69594;SDS011;56800;52.142;5.364;2024-03-25T14:37:46;7.53;;;2.88;;